Time;durP1;ratioP1;P1;durP2;ratioP2;P2;SDS_P1;SDS_P2;PMS_P1;PMS_P2;Temp;Humidity;BMP_temperature;BMP_pressure;BME280_temperature;BME280_humidity;BME280_pressure;Samples;Min_cycle;Max_cycle;Signal;HPM_P1;HPM_P2
2022/03/22 00:01:10;;;;;;;38.08;15.77;;;;;;;;;;5013508;28;20021;-46
2022/03/22 00:03:36;;;;;;;35.65;16.52;;;;;;;;;;5013762;28;20041;-47
2022/03/22 00:06:03;;;;;;;33.58;11.77;;;;;;;;;;5013267;28;20026;-47
2022/03/22 00:08:29;;;;;;;26.17;11.63;;;;;;;;;;5013794;28;20112;-46
2022/03/22 00:10:55;;;;;;;34.33;15.15;;;;;;;;;;5012608;28;20065;-47
2022/03/22 00:13:20;;;;;;;31.58;14.48;;;;;;;;;;5013367;28;20112;-48
2022/03/22 00:15:46;;;;;;;30.60;13.95;;;;;;;;;;5013274;28;20117;-47
2022/03/22 00:18:12;;;;;;;37.22;15.35;;;;;;;;;;5013317;28;20025;-47
2022/03/22 00:20:37;;;;;;;38.85;16.42;;;;;;;;;;5012988;28;20018;-48
2022/03/22 00:23:03;;;;;;;32.25;14.68;;;;;;;;;;5013512;28;20422;-45
2022/03/22 00:25:29;;;;;;;33.83;13.52;;;;;;;;;;5013508;28;20030;-45
2022/03/22 00:27:57;;;;;;;41.08;16.45;;;;;;;;;;5013447;28;20028;-45
2022/03/22 00:30:29;;;;;;;41.72;16.42;;;;;;;;;;5013145;28;20022;-46
2022/03/22 00:33:00;;;;;;;35.92;15.13;;;;;;;;;;5013256;28;20127;-46
2022/03/22 00:35:29;;;;;;;28.85;14.13;;;;;;;;;;5013171;28;20095;-47
2022/03/22 00:37:58;;;;;;;33.22;13.82;;;;;;;;;;5013367;28;20030;-46
2022/03/22 00:40:25;;;;;;;27.98;13.80;;;;;;;;;;5013326;28;20030;-47
2022/03/22 00:42:53;;;;;;;33.47;14.95;;;;;;;;;;5012720;28;20069;-45
2022/03/22 00:45:21;;;;;;;36.17;15.05;;;;;;;;;;5012881;28;20117;-46
2022/03/22 00:47:48;;;;;;;41.28;14.90;;;;;;;;;;5012854;28;20469;-47
2022/03/22 00:50:16;;;;;;;35.08;14.43;;;;;;;;;;5013085;28;20102;-47
2022/03/22 00:52:43;;;;;;;40.80;15.30;;;;;;;;;;5012880;28;20029;-47
2022/03/22 00:55:12;;;;;;;44.17;16.42;;;;;;;;;;5012856;28;20101;-47
2022/03/22 00:57:38;;;;;;;40.47;16.02;;;;;;;;;;5012635;28;20025;-47
2022/03/22 01:00:07;;;;;;;49.22;17.27;;;;;;;;;;5012993;28;20034;-47
2022/03/22 01:02:38;;;;;;;40.08;15.55;;;;;;;;;;5012882;28;20048;-47
2022/03/22 01:05:13;;;;;;;39.28;15.80;;;;;;;;;;5012615;28;20497;-47
2022/03/22 01:07:39;;;;;;;30.10;12.82;;;;;;;;;;5012891;28;20022;-47
2022/03/22 01:10:07;;;;;;;54.92;19.23;;;;;;;;;;5012484;28;20022;-47
2022/03/22 01:12:35;;;;;;;32.30;12.63;;;;;;;;;;5012643;28;20029;-47
2022/03/22 01:15:03;;;;;;;35.08;15.32;;;;;;;;;;5012825;28;20078;-47
2022/03/22 01:17:31;;;;;;;40.65;15.57;;;;;;;;;;5012851;28;20037;-47
2022/03/22 01:20:00;;;;;;;26.80;13.73;;;;;;;;;;5012550;28;20595;-46
2022/03/22 01:22:26;;;;;;;28.55;14.32;;;;;;;;;;5012501;28;20030;-45
2022/03/22 01:24:52;;;;;;;36.15;15.77;;;;;;;;;;5012769;28;20382;-45
2022/03/22 01:27:21;;;;;;;40.85;17.30;;;;;;;;;;5012364;28;20033;-47
2022/03/22 01:29:47;;;;;;;34.90;14.90;;;;;;;;;;5012671;28;20032;-46
2022/03/22 01:32:13;;;;;;;35.72;16.42;;;;;;;;;;5013525;28;20030;-46
2022/03/22 01:34:39;;;;;;;43.42;17.60;;;;;;;;;;5016205;28;20084;-45
2022/03/22 01:37:05;;;;;;;36.03;15.50;;;;;;;;;;5016373;28;20029;-46
2022/03/22 01:39:31;;;;;;;32.53;14.23;;;;;;;;;;5016472;28;20428;-45
2022/03/22 01:41:57;;;;;;;35.90;14.13;;;;;;;;;;5016032;28;20052;-47
2022/03/22 01:44:24;;;;;;;39.78;14.35;;;;;;;;;;5016429;28;20033;-47
2022/03/22 01:46:54;;;;;;;23.98;11.07;;;;;;;;;;5016128;28;20022;-47
2022/03/22 01:49:20;;;;;;;32.00;12.82;;;;;;;;;;5016080;28;20030;-47
2022/03/22 01:51:48;;;;;;;33.78;14.80;;;;;;;;;;5016320;28;20075;-46
2022/03/22 01:54:15;;;;;;;31.58;14.45;;;;;;;;;;5016038;28;20385;-47
2022/03/22 01:56:41;;;;;;;38.78;15.52;;;;;;;;;;5015899;28;20493;-46
2022/03/22 01:59:07;;;;;;;25.67;12.85;;;;;;;;;;5016139;28;20029;-47
2022/03/22 02:07:05;;;;;;;13.38;6.78;;;;;;;;;;5016073;28;20068;-47
2022/03/22 02:09:31;;;;;;;39.58;14.35;;;;;;;;;;5015937;28;20029;-47
2022/03/22 02:11:56;;;;;;;31.00;13.60;;;;;;;;;;5015903;28;20374;-47
2022/03/22 02:14:22;;;;;;;36.83;15.10;;;;;;;;;;5015610;28;20148;-48
2022/03/22 02:16:47;;;;;;;33.70;14.50;;;;;;;;;;5015758;28;20109;-48
2022/03/22 02:19:14;;;;;;;35.03;13.68;;;;;;;;;;5015556;28;20479;-45
2022/03/22 02:21:41;;;;;;;37.88;16.00;;;;;;;;;;5015649;28;20021;-46
2022/03/22 02:24:07;;;;;;;41.05;17.42;;;;;;;;;;5015660;28;20101;-45
2022/03/22 02:26:32;;;;;;;34.42;14.75;;;;;;;;;;5015396;28;20371;-47
2022/03/22 02:28:59;;;;;;;27.55;13.95;;;;;;;;;;5015339;28;20084;-46
2022/03/22 02:31:27;;;;;;;24.25;10.20;;;;;;;;;;5015370;28;20044;-48
2022/03/22 02:33:53;;;;;;;17.67;7.63;;;;;;;;;;5015245;28;20105;-48
2022/03/22 02:36:19;;;;;;;18.05;8.52;;;;;;;;;;5015353;28;20033;-47
2022/03/22 02:38:45;;;;;;;11.23;7.68;;;;;;;;;;5015455;28;20034;-47
2022/03/22 02:41:23;;;;;;;12.60;7.03;;;;;;;;;;5014881;28;20518;-47
2022/03/22 02:43:50;;;;;;;29.35;11.00;;;;;;;;;;5014946;28;20037;-47
2022/03/22 02:46:16;;;;;;;24.48;12.63;;;;;;;;;;5015153;28;20373;-47
2022/03/22 02:48:43;;;;;;;37.53;14.40;;;;;;;;;;5014870;28;20391;-47
2022/03/22 02:51:09;;;;;;;36.28;15.00;;;;;;;;;;5014761;28;20113;-47
2022/03/22 02:53:34;;;;;;;40.78;16.17;;;;;;;;;;5014958;28;20112;-47
2022/03/22 02:56:01;;;;;;;38.20;15.00;;;;;;;;;;5014654;28;20026;-47
2022/03/22 02:58:27;;;;;;;41.58;14.82;;;;;;;;;;5014774;28;20030;-45
2022/03/22 03:00:53;;;;;;;30.75;13.70;;;;;;;;;;5014738;28;20470;-46
2022/03/22 03:03:22;;;;;;;37.80;13.27;;;;;;;;;;5014750;28;20026;-46
2022/03/22 03:05:49;;;;;;;31.52;14.50;;;;;;;;;;5014933;28;20040;-47
2022/03/22 03:08:15;;;;;;;37.28;15.93;;;;;;;;;;5014539;28;20037;-46
2022/03/22 03:10:42;;;;;;;29.92;13.57;;;;;;;;;;5014861;28;20076;-49
2022/03/22 03:13:07;;;;;;;33.78;13.95;;;;;;;;;;5014526;28;20462;-46
2022/03/22 03:15:33;;;;;;;39.35;16.17;;;;;;;;;;5014472;28;20045;-45
2022/03/22 03:17:59;;;;;;;31.60;14.20;;;;;;;;;;5014691;28;20037;-48
2022/03/22 03:20:25;;;;;;;35.95;14.75;;;;;;;;;;5014595;28;20604;-47
2022/03/22 03:22:51;;;;;;;32.22;13.82;;;;;;;;;;5014415;28;20105;-47
2022/03/22 03:25:18;;;;;;;34.53;15.00;;;;;;;;;;5014268;28;20500;-47
2022/03/22 03:27:44;;;;;;;34.67;14.43;;;;;;;;;;5014561;28;20021;-47
2022/03/22 03:30:09;;;;;;;37.13;15.02;;;;;;;;;;5014484;28;20022;-48
2022/03/22 03:32:35;;;;;;;37.92;14.38;;;;;;;;;;5014468;28;20028;-47
2022/03/22 03:35:01;;;;;;;33.30;15.02;;;;;;;;;;5014020;28;20452;-47
2022/03/22 03:37:36;;;;;;;33.75;15.57;;;;;;;;;;5014400;28;20026;-49
2022/03/22 03:40:05;;;;;;;37.47;15.63;;;;;;;;;;5014368;28;20084;-48
2022/03/22 03:42:31;;;;;;;37.80;15.95;;;;;;;;;;5013611;28;20085;-47
2022/03/22 03:47:40;;;;;;;33.13;15.25;;;;;;;;;;5013938;28;20029;-46
2022/03/22 03:50:07;;;;;;;34.85;16.30;;;;;;;;;;5013859;28;20029;-46
2022/03/22 03:52:35;;;;;;;40.13;16.58;;;;;;;;;;5013725;28;20018;-46
2022/03/22 03:55:01;;;;;;;40.85;16.20;;;;;;;;;;5013151;28;20030;-45
2022/03/22 03:57:27;;;;;;;34.67;16.30;;;;;;;;;;5013752;28;20033;-46
2022/03/22 03:59:54;;;;;;;36.35;17.20;;;;;;;;;;5013918;28;20080;-49
2022/03/22 04:02:24;;;;;;;34.60;15.95;;;;;;;;;;5013645;28;20470;-47
2022/03/22 04:04:53;;;;;;;39.58;17.38;;;;;;;;;;5013497;28;20037;-47
2022/03/22 04:07:24;;;;;;;44.60;16.40;;;;;;;;;;5013511;28;20386;-47
2022/03/22 04:09:50;;;;;;;33.13;14.68;;;;;;;;;;5013783;28;20100;-47
2022/03/22 04:12:16;;;;;;;36.22;17.92;;;;;;;;;;5013384;28;20113;-47
2022/03/22 04:14:41;;;;;;;40.50;17.27;;;;;;;;;;5013502;28;20160;-47
2022/03/22 04:17:08;;;;;;;42.63;16.98;;;;;;;;;;5013285;28;20492;-47
2022/03/22 04:19:35;;;;;;;38.97;17.13;;;;;;;;;;5013526;28;20097;-48
2022/03/22 04:22:02;;;;;;;40.40;17.48;;;;;;;;;;5013333;28;20112;-47
2022/03/22 04:24:28;;;;;;;42.47;16.60;;;;;;;;;;5013389;28;20469;-47
2022/03/22 04:26:55;;;;;;;49.00;17.95;;;;;;;;;;5013199;28;20571;-48
2022/03/22 04:34:49;;;;;;;44.25;17.73;;;;;;;;;;5013284;28;20048;-47
2022/03/22 04:37:16;;;;;;;30.92;14.77;;;;;;;;;;5012907;28;20030;-49
2022/03/22 04:39:43;;;;;;;44.80;16.77;;;;;;;;;;5013276;28;20064;-46
2022/03/22 04:42:10;;;;;;;39.97;16.52;;;;;;;;;;5012768;28;20038;-46
2022/03/22 04:44:36;;;;;;;16.23;7.75;;;;;;;;;;5013089;28;20428;-47
2022/03/22 04:47:02;;;;;;;45.30;16.73;;;;;;;;;;5012904;28;20030;-45
2022/03/22 04:49:28;;;;;;;44.33;16.13;;;;;;;;;;5012182;28;20029;-46
2022/03/22 04:57:23;;;;;;;43.85;18.08;;;;;;;;;;5013105;28;20044;-46
2022/03/22 04:59:49;;;;;;;47.72;19.45;;;;;;;;;;5012851;28;20108;-47
2022/03/22 05:02:15;;;;;;;55.90;18.85;;;;;;;;;;5012418;28;20018;-49
2022/03/22 05:04:42;;;;;;;44.80;18.73;;;;;;;;;;5011799;28;20113;-47
2022/03/22 05:07:07;;;;;;;43.45;19.45;;;;;;;;;;5010974;28;20030;-44
2022/03/22 05:09:33;;;;;;;43.35;19.60;;;;;;;;;;5012610;28;20036;-46
2022/03/22 05:11:59;;;;;;;47.45;19.73;;;;;;;;;;5012735;28;20385;-47
2022/03/22 05:14:25;;;;;;;48.20;19.95;;;;;;;;;;5012717;28;20030;-46
2022/03/22 05:16:51;;;;;;;41.85;20.20;;;;;;;;;;5012462;28;20030;-46
2022/03/22 05:19:18;;;;;;;90.28;21.63;;;;;;;;;;5012737;28;20033;-47
2022/03/22 05:21:45;;;;;;;62.97;16.85;;;;;;;;;;5012451;28;20084;-45
2022/03/22 05:24:11;;;;;;;43.60;16.27;;;;;;;;;;5012284;28;20409;-48
2022/03/22 05:26:37;;;;;;;36.22;14.05;;;;;;;;;;5012657;28;20192;-47
2022/03/22 05:29:04;;;;;;;52.58;20.13;;;;;;;;;;5012459;28;20196;-49
2022/03/22 05:31:31;;;;;;;43.10;19.63;;;;;;;;;;5012528;28;20053;-47
2022/03/22 05:33:57;;;;;;;47.90;19.85;;;;;;;;;;5012334;28;20109;-47
2022/03/22 05:36:23;;;;;;;42.33;20.13;;;;;;;;;;5012252;28;20116;-46
2022/03/22 05:38:48;;;;;;;59.55;21.33;;;;;;;;;;5012553;28;20026;-46
2022/03/22 05:41:14;;;;;;;51.85;22.17;;;;;;;;;;5012145;28;20045;-48
2022/03/22 05:43:40;;;;;;;48.72;22.85;;;;;;;;;;5012173;28;20061;-47
2022/03/22 05:46:05;;;;;;;52.45;24.52;;;;;;;;;;5012142;28;20060;-49
2022/03/22 05:48:32;;;;;;;51.85;24.17;;;;;;;;;;5012514;28;20018;-48
2022/03/22 05:50:58;;;;;;;54.35;25.55;;;;;;;;;;5012393;28;20392;-45
2022/03/22 05:53:23;;;;;;;56.10;26.92;;;;;;;;;;5012345;28;20101;-49
2022/03/22 05:55:49;;;;;;;68.18;30.30;;;;;;;;;;5012020;28;20026;-48
2022/03/22 05:58:15;;;;;;;68.30;33.22;;;;;;;;;;5012165;28;20109;-47
2022/03/22 06:00:41;;;;;;;70.97;34.35;;;;;;;;;;5012321;28;20041;-48
2022/03/22 06:03:06;;;;;;;59.72;32.95;;;;;;;;;;5012031;28;20022;-48
2022/03/22 06:05:32;;;;;;;64.38;34.35;;;;;;;;;;5012272;28;20053;-49
2022/03/22 06:07:59;;;;;;;79.40;32.35;;;;;;;;;;5011896;28;20037;-48
2022/03/22 06:10:27;;;;;;;77.35;35.78;;;;;;;;;;5012050;28;20520;-45
2022/03/22 06:12:57;;;;;;;66.10;35.67;;;;;;;;;;5011936;28;20074;-44
2022/03/22 06:15:25;;;;;;;65.03;36.53;;;;;;;;;;5011898;28;20030;-45
2022/03/22 06:17:56;;;;;;;63.50;35.30;;;;;;;;;;5012478;28;20045;-46
2022/03/22 06:20:23;;;;;;;66.68;36.63;;;;;;;;;;5030181;28;20044;-45
2022/03/22 06:22:49;;;;;;;64.22;35.53;;;;;;;;;;5013455;28;20052;-47
2022/03/22 06:25:16;;;;;;;67.43;36.58;;;;;;;;;;5015347;28;20066;-48
2022/03/22 06:27:43;;;;;;;59.55;35.20;;;;;;;;;;5014747;28;20025;-45
2022/03/22 06:30:10;;;;;;;61.53;33.95;;;;;;;;;;5015161;28;20093;-47
2022/03/22 06:32:50;;;;;;;56.03;32.05;;;;;;;;;;5014987;28;20060;-50
2022/03/22 06:35:20;;;;;;;52.65;31.17;;;;;;;;;;5015318;28;20037;-47
2022/03/22 06:37:46;;;;;;;47.40;28.35;;;;;;;;;;5030011;28;20116;-51
2022/03/22 06:40:14;;;;;;;43.45;26.98;;;;;;;;;;5015330;28;20034;-54
2022/03/22 06:42:40;;;;;;;42.00;25.60;;;;;;;;;;5014827;28;20037;-53
2022/03/22 06:45:06;;;;;;;47.45;25.13;;;;;;;;;;5014493;28;20052;-53
2022/03/22 06:47:32;;;;;;;41.83;25.02;;;;;;;;;;5015149;28;20026;-48
2022/03/22 06:49:59;;;;;;;43.67;26.45;;;;;;;;;;5015177;28;20350;-43
2022/03/22 06:52:25;;;;;;;43.63;26.73;;;;;;;;;;5015197;28;20052;-44
2022/03/22 06:54:51;;;;;;;44.78;26.08;;;;;;;;;;5014863;28;20458;-51
2022/03/22 06:57:16;;;;;;;49.22;25.63;;;;;;;;;;5014695;28;20156;-48
2022/03/22 06:59:42;;;;;;;40.78;25.08;;;;;;;;;;5014990;28;20030;-43
2022/03/22 07:02:08;;;;;;;37.60;24.98;;;;;;;;;;5014842;28;20026;-48
2022/03/22 07:04:34;;;;;;;36.97;23.05;;;;;;;;;;5014830;28;20022;-45
2022/03/22 07:06:59;;;;;;;31.75;20.65;;;;;;;;;;5014380;28;20032;-45
2022/03/22 07:09:25;;;;;;;42.75;23.23;;;;;;;;;;5014729;28;20049;-45
2022/03/22 07:11:51;;;;;;;37.97;23.00;;;;;;;;;;5014161;28;20057;-51
2022/03/22 07:14:21;;;;;;;34.05;21.48;;;;;;;;;;5014264;28;20113;-50
2022/03/22 07:16:47;;;;;;;31.30;17.60;;;;;;;;;;5014517;28;20053;-44
2022/03/22 07:19:17;;;;;;;36.38;22.27;;;;;;;;;;5014569;28;20058;-47
2022/03/22 07:21:44;;;;;;;27.67;15.80;;;;;;;;;;5014164;28;20022;-46
2022/03/22 07:24:11;;;;;;;27.67;15.40;;;;;;;;;;5014564;28;20033;-47
2022/03/22 07:26:37;;;;;;;26.63;14.73;;;;;;;;;;5014087;28;20412;-47
2022/03/22 07:29:02;;;;;;;32.08;18.77;;;;;;;;;;5013621;28;20030;-46
2022/03/22 07:31:28;;;;;;;22.20;12.80;;;;;;;;;;5013714;28;20088;-49
2022/03/22 07:33:54;;;;;;;29.30;16.35;;;;;;;;;;5013799;28;20385;-43
2022/03/22 07:36:19;;;;;;;27.30;15.95;;;;;;;;;;5014087;28;20036;-46
2022/03/22 07:38:45;;;;;;;36.17;18.85;;;;;;;;;;5014136;28;20531;-48
2022/03/22 07:41:13;;;;;;;30.88;19.50;;;;;;;;;;5013694;28;20601;-44
2022/03/22 07:43:40;;;;;;;28.17;19.23;;;;;;;;;;5013747;28;20466;-45
2022/03/22 07:46:05;;;;;;;26.17;13.57;;;;;;;;;;5028691;28;20141;-44
2022/03/22 07:48:31;;;;;;;37.03;19.67;;;;;;;;;;5009511;28;20109;-53
2022/03/22 07:53:44;;;;;;;34.25;18.08;;;;;;;;;;5011933;28;20532;-51
2022/03/22 07:56:11;;;;;;;29.88;18.98;;;;;;;;;;5029042;28;20583;-50
2022/03/22 07:58:36;;;;;;;31.13;19.95;;;;;;;;;;5041102;28;20029;-51
2022/03/22 08:01:02;;;;;;;28.65;16.35;;;;;;;;;;5039391;28;20030;-47
2022/03/22 08:03:28;;;;;;;38.40;20.17;;;;;;;;;;5036960;28;20029;-50
2022/03/22 08:05:53;;;;;;;39.47;23.77;;;;;;;;;;5034630;28;20068;-53
2022/03/22 08:08:20;;;;;;;35.83;20.77;;;;;;;;;;5031584;28;20113;-56
2022/03/22 08:10:45;;;;;;;25.98;14.10;;;;;;;;;;5031471;28;20103;-50
2022/03/22 08:13:12;;;;;;;19.15;11.90;;;;;;;;;;5031872;28;20065;-52
2022/03/22 08:15:38;;;;;;;36.33;18.35;;;;;;;;;;5032791;28;20469;-50
2022/03/22 08:18:04;;;;;;;29.70;14.65;;;;;;;;;;5031701;28;20393;-54
2022/03/22 08:20:30;;;;;;;33.92;17.98;;;;;;;;;;5032993;28;20032;-52
2022/03/22 08:22:59;;;;;;;33.38;19.25;;;;;;;;;;5032802;28;20026;-49
2022/03/22 08:25:30;;;;;;;21.45;12.32;;;;;;;;;;5032844;28;20060;-49
2022/03/22 08:27:57;;;;;;;;;;;;;;;;;;5033085;28;20028;-45
2022/03/22 08:30:23;;;;;;;31.55;19.42;;;;;;;;;;5032481;28;19959;-51
2022/03/22 08:32:53;;;;;;;36.80;21.33;;;;;;;;;;5032031;28;20033;-50
2022/03/22 08:35:20;;;;;;;33.90;21.13;;;;;;;;;;5032818;28;20022;-48
2022/03/22 08:37:46;;;;;;;34.92;20.25;;;;;;;;;;5032454;28;20034;-46
2022/03/22 08:40:16;;;;;;;26.88;14.75;;;;;;;;;;5032723;28;20079;-46
2022/03/22 08:42:46;;;;;;;38.72;21.30;;;;;;;;;;5032311;28;20042;-47
2022/03/22 08:45:17;;;;;;;41.03;25.50;;;;;;;;;;5032586;28;20038;-47
2022/03/22 08:47:45;;;;;;;38.20;22.75;;;;;;;;;;5032641;28;20026;-49
2022/03/22 08:50:13;;;;;;;32.67;19.00;;;;;;;;;;5032445;28;20029;-50
2022/03/22 08:52:39;;;;;;;37.10;19.80;;;;;;;;;;5031542;28;20021;-46
2022/03/22 08:55:07;;;;;;;25.40;17.63;;;;;;;;;;5030834;28;20163;-49
2022/03/22 08:57:34;;;;;;;73.43;31.08;;;;;;;;;;5032277;28;20108;-50
2022/03/22 08:59:59;;;;;;;30.88;15.68;;;;;;;;;;5032642;28;20109;-47
2022/03/22 09:02:25;;;;;;;30.80;17.95;;;;;;;;;;5032406;28;20467;-47
2022/03/22 09:07:34;;;;;;;31.25;18.73;;;;;;;;;;5032341;28;20098;-51
2022/03/22 09:10:00;;;;;;;29.17;16.23;;;;;;;;;;5032214;28;20063;-47
2022/03/22 09:12:26;;;;;;;23.30;16.23;;;;;;;;;;5032038;28;20025;-49
2022/03/22 09:14:53;;;;;;;34.80;20.98;;;;;;;;;;5032476;28;20022;-50
2022/03/22 09:17:20;;;;;;;37.92;19.60;;;;;;;;;;5032162;28;20072;-54
2022/03/22 09:19:46;;;;;;;37.22;15.57;;;;;;;;;;5032085;28;20465;-52
2022/03/22 09:22:11;;;;;;;31.13;17.75;;;;;;;;;;5032008;28;20156;-47
2022/03/22 09:24:37;;;;;;;37.63;20.52;;;;;;;;;;5032132;28;20461;-48
2022/03/22 09:27:03;;;;;;;27.02;18.88;;;;;;;;;;5032134;28;20053;-53
2022/03/22 09:29:29;;;;;;;28.73;16.05;;;;;;;;;;5031661;28;20029;-50
2022/03/22 09:31:55;;;;;;;26.23;18.02;;;;;;;;;;5031813;28;20036;-55
2022/03/22 09:34:25;;;;;;;30.15;18.95;;;;;;;;;;5031980;28;20160;-53
2022/03/22 09:36:51;;;;;;;;;;;;;;;;;;5030985;28;20042;-48
2022/03/22 09:39:17;;;;;;;29.65;18.77;;;;;;;;;;5030624;28;19913;-55
2022/03/22 09:41:45;;;;;;;24.92;12.80;;;;;;;;;;5030237;28;20050;-48
2022/03/22 09:55:11;;;;;;;18.15;13.38;;;;;;;;;;5088349;27;20603;-56
2022/03/22 09:57:38;;;;;;;24.33;16.40;;;;;;;;;;5087182;28;20090;-53
2022/03/22 10:00:05;;;;;;;28.30;17.17;;;;;;;;;;5088079;28;20032;-58
2022/03/22 10:02:35;;;;;;;22.67;15.38;;;;;;;;;;5087936;28;20047;-57
2022/03/22 10:05:01;;;;;;;32.08;18.52;;;;;;;;;;5087883;28;20032;-58
2022/03/22 10:07:27;;;;;;;24.75;15.23;;;;;;;;;;5087784;28;20116;-50
2022/03/22 10:09:55;;;;;;;28.73;15.77;;;;;;;;;;5088100;28;20085;-55
2022/03/22 10:12:31;;;;;;;27.73;17.00;;;;;;;;;;5087789;28;20035;-53
2022/03/22 10:15:12;;;;;;;24.73;15.50;;;;;;;;;;5087636;28;20107;-56
2022/03/22 10:17:38;;;;;;;24.52;15.07;;;;;;;;;;5088034;28;20127;-53
2022/03/22 10:20:05;;;;;;;23.33;15.73;;;;;;;;;;5087876;28;20020;-56
2022/03/22 10:22:32;;;;;;;23.90;14.93;;;;;;;;;;5087677;28;20021;-55
2022/03/22 10:24:59;;;;;;;22.42;13.07;;;;;;;;;;5087933;28;20050;-55
2022/03/22 10:27:34;;;;;;;19.20;12.65;;;;;;;;;;5087747;28;20020;-55
2022/03/22 10:30:03;;;;;;;24.75;15.73;;;;;;;;;;5087731;28;20032;-53
2022/03/22 10:32:33;;;;;;;30.85;11.35;;;;;;;;;;5087352;28;20844;-54
2022/03/22 10:35:11;;;;;;;;;;;;;;;;;;5087756;28;20083;-56
2022/03/22 10:37:38;;;;;;;17.83;10.68;;;;;;;;;;5087450;28;20025;-55
2022/03/22 10:40:24;;;;;;;15.10;9.68;;;;;;;;;;5087399;28;20024;-55
2022/03/22 10:42:57;;;;;;;24.17;15.25;;;;;;;;;;5086799;28;20028;-54
2022/03/22 10:45:22;;;;;;;25.17;14.27;;;;;;;;;;5087223;28;20074;-56
2022/03/22 10:47:48;;;;;;;17.08;9.77;;;;;;;;;;5087373;28;20051;-55
2022/03/22 10:50:13;;;;;;;23.77;14.15;;;;;;;;;;5086865;28;20032;-55
2022/03/22 10:52:56;;;;;;;20.10;13.85;;;;;;;;;;5087042;28;20040;-53
2022/03/22 10:55:24;;;;;;;24.27;14.20;;;;;;;;;;5077566;28;20040;-54
2022/03/22 10:57:52;;;;;;;16.10;9.63;;;;;;;;;;5073158;28;20074;-56
2022/03/22 11:00:18;;;;;;;22.27;12.45;;;;;;;;;;5072776;28;20068;-51
2022/03/22 11:02:48;;;;;;;26.10;14.57;;;;;;;;;;5073397;28;20056;-55
2022/03/22 11:05:14;;;;;;;25.33;14.23;;;;;;;;;;5073374;28;20063;-57
2022/03/22 11:07:40;;;;;;;18.98;12.52;;;;;;;;;;5073204;28;20491;-57
2022/03/22 11:10:06;;;;;;;19.73;11.95;;;;;;;;;;5073071;28;20060;-55
2022/03/22 11:12:33;;;;;;;14.23;8.80;;;;;;;;;;5072782;28;20029;-54
2022/03/22 11:15:00;;;;;;;15.85;10.02;;;;;;;;;;5073468;28;20498;-51
2022/03/22 11:17:34;;;;;;;19.83;11.60;;;;;;;;;;5073172;28;20547;-55
2022/03/22 11:20:01;;;;;;;23.38;12.27;;;;;;;;;;5073240;28;20107;-55
2022/03/22 11:22:28;;;;;;;21.58;12.90;;;;;;;;;;5072889;28;20029;-57
2022/03/22 11:25:08;;;;;;;19.60;12.90;;;;;;;;;;5072974;28;20452;-51
2022/03/22 11:27:33;;;;;;;17.10;12.23;;;;;;;;;;5073053;28;20024;-51
2022/03/22 11:29:58;;;;;;;20.60;10.90;;;;;;;;;;5072747;28;20040;-55
2022/03/22 11:35:16;;;;;;;19.73;11.30;;;;;;;;;;5069673;28;20374;-54
2022/03/22 11:37:42;;;;;;;15.23;10.18;;;;;;;;;;5071349;28;20024;-54
2022/03/22 11:43:09;;;;;;;24.15;11.40;;;;;;;;;;5071212;28;20036;-54
2022/03/22 11:45:51;;;;;;;23.83;11.27;;;;;;;;;;5071217;28;20056;-55
2022/03/22 11:48:18;;;;;;;20.55;10.13;;;;;;;;;;5070545;28;20028;-53
2022/03/22 11:50:46;;;;;;;19.08;9.93;;;;;;;;;;5071531;28;20376;-56
2022/03/22 11:53:20;;;;;;;9.70;7.20;;;;;;;;;;5075217;28;20559;-55
2022/03/22 11:55:53;;;;;;;11.20;7.85;;;;;;;;;;5088945;28;20054;-51
2022/03/22 11:58:26;;;;;;;13.63;8.15;;;;;;;;;;5091371;28;20042;-53
2022/03/22 12:00:57;;;;;;;16.75;10.18;;;;;;;;;;5088487;28;20023;-54
2022/03/22 12:03:29;;;;;;;16.75;9.85;;;;;;;;;;5091048;28;20043;-53
2022/03/22 12:05:55;;;;;;;15.27;7.43;;;;;;;;;;5090534;28;20043;-53
2022/03/22 12:08:23;;;;;;;18.80;10.25;;;;;;;;;;5090558;28;20066;-55
2022/03/22 12:10:51;;;;;;;14.60;8.80;;;;;;;;;;5091040;28;20028;-53
2022/03/22 12:13:18;;;;;;;21.83;9.38;;;;;;;;;;5090923;28;20023;-58
2022/03/22 12:15:44;;;;;;;26.35;12.18;;;;;;;;;;5090470;28;20107;-49
2022/03/22 12:18:11;;;;;;;14.07;9.77;;;;;;;;;;5091109;28;20102;-55
2022/03/22 12:20:38;;;;;;;25.90;11.85;;;;;;;;;;5090410;28;20452;-57
2022/03/22 12:23:06;;;;;;;20.27;10.63;;;;;;;;;;5090940;28;20020;-56
2022/03/22 12:25:33;;;;;;;20.77;10.95;;;;;;;;;;5091014;28;20012;-55
2022/03/22 12:28:06;;;;;;;31.55;11.75;;;;;;;;;;5090787;28;20032;-59
2022/03/22 12:30:34;;;;;;;13.95;9.35;;;;;;;;;;5088772;28;20042;-57
2022/03/22 12:33:09;;;;;;;21.92;12.23;;;;;;;;;;5090801;28;20032;-52
2022/03/22 12:35:35;;;;;;;14.68;9.75;;;;;;;;;;5089089;28;20479;-54
2022/03/22 12:38:01;;;;;;;16.88;11.20;;;;;;;;;;5090669;28;20032;-51
2022/03/22 12:40:27;;;;;;;13.93;8.43;;;;;;;;;;5091575;28;20051;-57
2022/03/22 12:42:54;;;;;;;14.07;9.13;;;;;;;;;;5091284;28;20613;-54
2022/03/22 12:45:21;;;;;;;9.07;6.30;;;;;;;;;;5091657;28;20081;-50
2022/03/22 12:47:48;;;;;;;14.02;8.02;;;;;;;;;;5091767;28;20071;-55
2022/03/22 12:50:15;;;;;;;17.35;8.88;;;;;;;;;;5091172;28;20081;-50
2022/03/22 12:52:41;;;;;;;18.38;9.50;;;;;;;;;;5091214;28;20032;-52
2022/03/22 12:55:09;;;;;;;16.05;8.90;;;;;;;;;;5071386;28;20393;-50
2022/03/22 12:57:37;;;;;;;8.73;5.13;;;;;;;;;;5071007;28;20024;-55
2022/03/22 13:00:04;;;;;;;11.82;6.95;;;;;;;;;;5071526;28;20078;-49
2022/03/22 13:02:30;;;;;;;22.50;10.75;;;;;;;;;;5071197;28;20032;-53
2022/03/22 13:04:56;;;;;;;49.88;17.15;;;;;;;;;;5071289;28;20035;-50
2022/03/22 13:07:27;;;;;;;15.73;7.05;;;;;;;;;;5071097;28;20439;-55
2022/03/22 13:12:39;;;;;;;16.63;7.80;;;;;;;;;;5071166;28;20108;-50
2022/03/22 13:15:08;;;;;;;18.80;9.02;;;;;;;;;;5069012;28;20422;-53
2022/03/22 13:17:43;;;;;;;19.65;10.23;;;;;;;;;;5068604;28;20027;-52
2022/03/22 13:20:24;;;;;;;16.27;9.23;;;;;;;;;;5070953;28;20032;-51
2022/03/22 13:22:50;;;;;;;11.30;7.00;;;;;;;;;;5070569;28;20090;-51
2022/03/22 13:25:18;;;;;;;16.58;8.80;;;;;;;;;;5070697;28;20379;-53
2022/03/22 13:27:53;;;;;;;13.18;8.18;;;;;;;;;;5070638;28;20043;-52
2022/03/22 13:30:22;;;;;;;10.52;5.70;;;;;;;;;;5068890;28;20028;-57
2022/03/22 13:32:47;;;;;;;19.15;8.68;;;;;;;;;;5069490;28;20029;-53
2022/03/22 13:35:14;;;;;;;17.88;8.75;;;;;;;;;;5068868;28;20032;-50
2022/03/22 13:37:58;;;;;;;16.13;8.82;;;;;;;;;;5069225;28;20089;-51
2022/03/22 13:40:23;;;;;;;15.30;8.48;;;;;;;;;;5069314;28;20032;-51
2022/03/22 13:42:56;;;;;;;15.52;8.55;;;;;;;;;;5069201;28;20036;-58
2022/03/22 13:45:22;;;;;;;14.27;9.02;;;;;;;;;;5068727;28;20092;-59
2022/03/22 13:47:48;;;;;;;17.02;9.93;;;;;;;;;;5068890;28;20104;-51
2022/03/22 13:50:19;;;;;;;20.30;9.60;;;;;;;;;;5068854;28;20023;-56
2022/03/22 13:53:03;;;;;;;17.88;9.52;;;;;;;;;;5069142;28;20056;-62
2022/03/22 13:55:29;;;;;;;15.90;10.25;;;;;;;;;;5089449;28;20020;-55
2022/03/22 13:57:56;;;;;;;23.83;10.15;;;;;;;;;;5089307;28;20028;-50
2022/03/22 14:00:22;;;;;;;18.25;8.98;;;;;;;;;;5088500;28;20032;-55
2022/03/22 14:02:49;;;;;;;13.02;8.38;;;;;;;;;;5089227;28;20036;-58
2022/03/22 14:05:15;;;;;;;14.20;8.52;;;;;;;;;;5089159;28;20024;-53
2022/03/22 14:07:54;;;;;;;22.45;10.73;;;;;;;;;;5089130;28;20594;-55
2022/03/22 14:10:21;;;;;;;12.20;7.55;;;;;;;;;;5089220;28;20047;-54
2022/03/22 14:12:46;;;;;;;10.40;6.22;;;;;;;;;;5089201;28;20071;-56
2022/03/22 14:15:13;;;;;;;13.40;7.18;;;;;;;;;;5089117;28;20056;-49
2022/03/22 14:17:39;;;;;;;19.17;9.27;;;;;;;;;;5088038;28;20109;-47
2022/03/22 14:20:06;;;;;;;24.05;12.70;;;;;;;;;;5089108;28;20016;-53
2022/03/22 14:22:32;;;;;;;21.13;10.38;;;;;;;;;;5088686;28;20539;-55
2022/03/22 14:24:58;;;;;;;20.80;10.05;;;;;;;;;;5089021;28;20081;-50
2022/03/22 14:27:24;;;;;;;16.77;8.25;;;;;;;;;;5089112;28;20111;-49
2022/03/22 14:29:49;;;;;;;17.80;9.70;;;;;;;;;;5089841;28;20111;-54
2022/03/22 14:32:15;;;;;;;21.02;9.90;;;;;;;;;;5093032;28;20027;-60
2022/03/22 14:37:24;;;;;;;18.02;9.35;;;;;;;;;;5094403;28;20035;-52
2022/03/22 14:39:50;;;;;;;19.48;10.57;;;;;;;;;;5094093;28;20468;-52
2022/03/22 14:42:16;;;;;;;15.90;9.18;;;;;;;;;;5093253;28;20024;-54
2022/03/22 14:44:43;;;;;;;16.52;10.02;;;;;;;;;;5092968;28;20039;-58
2022/03/22 14:47:10;;;;;;;20.02;10.23;;;;;;;;;;5093982;28;20024;-52
2022/03/22 14:49:39;;;;;;;17.60;8.60;;;;;;;;;;5076102;28;20032;-53
2022/03/22 14:54:49;;;;;;;12.27;6.10;;;;;;;;;;5093112;28;20067;-52
2022/03/22 15:00:01;;;;;;;13.00;8.07;;;;;;;;;;5094023;28;20031;-54
2022/03/22 15:02:27;;;;;;;14.63;8.88;;;;;;;;;;5093668;28;20494;-52
2022/03/22 15:04:52;;;;;;;28.33;9.18;;;;;;;;;;5093611;28;20028;-51
2022/03/22 15:07:21;;;;;;;20.60;8.93;;;;;;;;;;5093849;28;20032;-54
2022/03/22 15:09:51;;;;;;;14.27;7.72;;;;;;;;;;5075458;28;20093;-58
2022/03/22 15:12:20;;;;;;;;;;;;;;;;;;5093654;28;20042;-52
2022/03/22 15:14:47;;;;;;;14.73;7.45;;;;;;;;;;5093330;28;20033;-56